Time;durP1;ratioP1;P1;durP2;ratioP2;P2;SDS_P1;SDS_P2;PMS_P1;PMS_P2;Temp;Humidity;BMP_temperature;BMP_pressure;BME280_temperature;BME280_humidity;BME280_pressure;Samples;Min_cycle;Max_cycle;Signal;HPM_P1;HPM_P2
2021/04/05 00:01:45;;;;;;;19.37;8.67;;;;;;;10.05;100.00;101643.77;1887509;76;26263;-72
2021/04/05 00:04:15;;;;;;;19.87;9.47;;;;;;;10.02;100.00;101646.23;1887549;76;26240;-71
2021/04/05 00:06:45;;;;;;;16.47;8.57;;;;;;;10.00;100.00;101642.35;1887554;76;26274;-72
2021/04/05 00:09:14;;;;;;;14.03;7.97;;;;;;;9.96;100.00;101640.36;1887332;76;26657;-72
2021/04/05 00:11:44;;;;;;;15.13;8.33;;;;;;;9.92;100.00;101648.92;1887640;76;26201;-72
2021/04/05 00:14:14;;;;;;;14.73;8.27;;;;;;;9.82;100.00;101645.48;1887408;76;26287;-72
2021/04/05 00:16:44;;;;;;;18.57;8.33;;;;;;;9.86;100.00;101648.02;1887400;76;26674;-72
2021/04/05 00:19:14;;;;;;;18.23;8.17;;;;;;;9.81;100.00;101652.12;1887423;76;26198;-72
2021/04/05 00:21:44;;;;;;;17.07;9.20;;;;;;;9.79;100.00;101648.78;1887300;76;26632;-71
2021/04/05 00:24:14;;;;;;;15.90;8.03;;;;;;;9.84;100.00;101636.33;1887243;73;26680;-72
2021/04/05 00:26:43;;;;;;;15.03;8.97;;;;;;;9.84;100.00;101647.42;1887526;76;26197;-72
2021/04/05 00:29:13;;;;;;;14.93;8.93;;;;;;;9.81;100.00;101645.19;1887420;76;26194;-72
2021/04/05 00:31:43;;;;;;;15.33;8.20;;;;;;;9.80;100.00;101639.88;1887408;76;26726;-73
2021/04/05 00:34:13;;;;;;;16.93;8.23;;;;;;;9.79;100.00;101639.08;1887287;76;26205;-72
2021/04/05 00:36:43;;;;;;;15.53;8.00;;;;;;;9.72;100.00;101627.87;1887502;76;26247;-72
2021/04/05 00:39:13;;;;;;;14.40;7.87;;;;;;;9.74;100.00;101625.14;1887323;76;26185;-73
2021/04/05 00:41:44;;;;;;;16.50;7.57;;;;;;;9.70;100.00;101607.89;1887361;76;26197;-73
2021/04/05 00:44:13;;;;;;;14.13;7.67;;;;;;;9.70;100.00;101600.95;1887439;76;26205;-72
2021/04/05 00:46:44;;;;;;;14.67;7.60;;;;;;;9.59;100.00;101595.28;1887510;76;26268;-72
2021/04/05 00:49:14;;;;;;;14.50;7.90;;;;;;;9.53;100.00;101594.95;1887481;76;26292;-72
2021/04/05 00:51:44;;;;;;;16.17;7.93;;;;;;;9.54;100.00;101595.22;1887511;76;26185;-71
2021/04/05 00:54:14;;;;;;;14.80;8.43;;;;;;;9.50;100.00;101596.84;1887485;76;26186;-72
2021/04/05 00:56:45;;;;;;;14.27;7.47;;;;;;;9.51;100.00;101583.81;1887510;76;26743;-72
2021/04/05 00:59:15;;;;;;;18.17;7.67;;;;;;;9.50;100.00;101583.52;1887583;76;26253;-72
2021/04/05 01:01:45;;;;;;;15.73;7.37;;;;;;;9.48;100.00;101575.48;1887648;76;26197;-72
2021/04/05 01:04:14;;;;;;;12.77;7.20;;;;;;;9.55;100.00;101566.94;1887522;76;26182;-72
2021/04/05 01:06:44;;;;;;;15.20;7.57;;;;;;;9.53;100.00;101564.45;1888029;76;26247;-72
2021/04/05 01:09:15;;;;;;;12.53;7.60;;;;;;;9.51;100.00;101568.56;1888988;76;26637;-72
2021/04/05 01:11:44;;;;;;;14.37;7.97;;;;;;;9.54;100.00;101560.55;1887415;76;26718;-72
2021/04/05 01:14:14;;;;;;;14.27;7.60;;;;;;;9.57;100.00;101557.28;1887516;76;26714;-72
2021/04/05 01:16:45;;;;;;;14.67;7.90;;;;;;;9.59;100.00;101561.16;1887539;76;26201;-72
2021/04/05 01:19:15;;;;;;;15.97;7.97;;;;;;;9.58;100.00;101545.64;1887462;76;26270;-72
2021/04/05 01:21:49;;;;;;;12.63;8.43;;;;;;;9.52;100.00;101536.42;1887643;76;26724;-72
2021/04/05 01:24:21;;;;;;;12.87;8.40;;;;;;;9.51;100.00;101536.67;1887736;76;26213;-72
2021/04/05 01:26:51;;;;;;;13.87;7.23;;;;;;;9.55;100.00;101532.27;1887486;73;26284;-72
2021/04/05 01:29:21;;;;;;;14.20;8.17;;;;;;;9.52;100.00;101530.88;1887677;76;26262;-72
2021/04/05 01:31:51;;;;;;;13.03;8.50;;;;;;;9.50;100.00;101523.89;1887526;76;26749;-72
2021/04/05 01:34:21;;;;;;;15.37;8.40;;;;;;;9.45;100.00;101523.87;1887386;76;26718;-72
2021/04/05 01:36:51;;;;;;;15.63;8.13;;;;;;;9.49;100.00;101509.77;1887533;76;26268;-72
2021/04/05 01:39:21;;;;;;;15.17;8.33;;;;;;;9.44;100.00;101502.23;1887437;76;26620;-72
2021/04/05 01:41:51;;;;;;;14.60;8.37;;;;;;;9.45;100.00;101499.75;1887692;76;26272;-72
2021/04/05 01:44:21;;;;;;;14.50;7.57;;;;;;;9.43;100.00;101498.32;1887750;76;26275;-72
2021/04/05 01:46:50;;;;;;;12.57;8.33;;;;;;;9.38;100.00;101503.27;1887424;76;26287;-72
2021/04/05 01:49:20;;;;;;;16.47;8.63;;;;;;;9.32;100.00;101504.33;1887413;76;26856;-72
2021/04/05 01:51:50;;;;;;;16.77;8.40;;;;;;;9.27;100.00;101507.03;1887439;76;26412;-72
2021/04/05 01:54:20;;;;;;;13.47;8.20;;;;;;;9.24;100.00;101502.57;1886755;76;26778;-71
2021/04/05 01:56:50;;;;;;;16.83;8.23;;;;;;;9.12;100.00;101493.83;1887431;76;26244;-71
2021/04/05 01:59:20;;;;;;;14.97;8.37;;;;;;;9.05;100.00;101494.59;1887698;76;26303;-72
2021/04/05 02:01:50;;;;;;;17.47;9.03;;;;;;;9.08;100.00;101494.06;1887367;76;26679;-72
2021/04/05 02:04:20;;;;;;;13.97;9.03;;;;;;;9.06;100.00;101499.59;1887506;76;26189;-72
2021/04/05 02:06:50;;;;;;;12.07;8.20;;;;;;;9.00;100.00;101494.53;1887555;76;26307;-73
2021/04/05 02:09:20;;;;;;;12.60;8.90;;;;;;;8.90;100.00;101499.13;1887530;76;26316;-73
2021/04/05 02:11:50;;;;;;;17.50;8.80;;;;;;;8.82;100.00;101500.39;1887466;76;26640;-72
2021/04/05 02:14:20;;;;;;;16.13;8.87;;;;;;;8.84;100.00;101502.92;1887510;76;26233;-72
2021/04/05 02:16:50;;;;;;;19.20;9.50;;;;;;;8.77;100.00;101494.78;1887420;76;26707;-72
2021/04/05 02:19:20;;;;;;;16.13;9.17;;;;;;;8.83;100.00;101491.53;1887526;76;26683;-72
2021/04/05 02:21:51;;;;;;;17.40;9.93;;;;;;;8.86;100.00;101487.70;1887418;76;26688;-72
2021/04/05 02:24:21;;;;;;;20.17;9.40;;;;;;;8.77;100.00;101492.02;1887500;76;26240;-72
2021/04/05 02:26:52;;;;;;;14.37;9.87;;;;;;;8.73;100.00;101482.55;1887455;73;26229;-72
2021/04/05 02:29:23;;;;;;;15.63;9.47;;;;;;;8.71;100.00;101483.91;1887494;76;26704;-72
2021/04/05 02:31:52;;;;;;;14.37;9.00;;;;;;;8.65;100.00;101479.69;1887434;76;26198;-72
2021/04/05 02:34:25;;;;;;;16.43;10.20;;;;;;;8.63;100.00;101483.27;1887422;76;26628;-71
2021/04/05 02:36:54;;;;;;;14.77;9.47;;;;;;;8.61;100.00;101477.14;1887489;76;26224;-71
2021/04/05 02:39:25;;;;;;;17.60;9.80;;;;;;;8.58;100.00;101472.67;1887532;76;26194;-71
2021/04/05 02:41:55;;;;;;;17.27;9.57;;;;;;;8.57;100.00;101472.38;1887535;76;26197;-71
2021/04/05 02:44:26;;;;;;;14.73;9.30;;;;;;;8.56;100.00;101467.37;1887527;76;26655;-71
2021/04/05 02:46:56;;;;;;;16.70;9.47;;;;;;;8.52;100.00;101452.91;1890677;76;26303;-71
2021/04/05 02:49:27;;;;;;;17.10;9.47;;;;;;;8.55;100.00;101458.80;1890684;76;26222;-71
2021/04/05 02:51:58;;;;;;;17.50;10.00;;;;;;;8.45;100.00;101455.05;1890473;76;26267;-71
2021/04/05 02:54:28;;;;;;;18.07;9.37;;;;;;;8.55;100.00;101457.96;1890495;76;26189;-71
2021/04/05 02:56:59;;;;;;;15.50;10.40;;;;;;;8.41;100.00;101446.42;1888952;76;26185;-71
2021/04/05 02:59:29;;;;;;;17.67;10.03;;;;;;;8.43;100.00;101448.95;1887486;76;26188;-71
2021/04/05 03:02:00;;;;;;;20.20;10.80;;;;;;;8.47;100.00;101441.22;1887573;76;26293;-70
2021/04/05 03:04:32;;;;;;;17.00;9.90;;;;;;;8.52;100.00;101441.84;1887583;76;26268;-73
2021/04/05 03:07:02;;;;;;;15.63;10.33;;;;;;;8.34;100.00;101436.09;1887398;76;26620;-73
2021/04/05 03:09:32;;;;;;;15.80;10.27;;;;;;;8.43;100.00;101437.88;1887581;76;26660;-73
2021/04/05 03:12:04;;;;;;;16.90;10.40;;;;;;;8.51;100.00;101445.19;1887500;76;26197;-73
2021/04/05 03:14:36;;;;;;;21.47;11.83;;;;;;;8.49;100.00;101437.67;1887543;76;26200;-74
2021/04/05 03:17:08;;;;;;;21.13;11.50;;;;;;;8.53;100.00;101436.05;1887446;76;26657;-73
2021/04/05 03:19:41;;;;;;;21.90;10.73;;;;;;;8.60;100.00;101435.88;1887464;76;26628;-74
2021/04/05 03:22:12;;;;;;;18.10;9.97;;;;;;;8.72;100.00;101438.51;1887657;76;26232;-72
2021/04/05 03:24:43;;;;;;;15.93;10.13;;;;;;;8.63;100.00;101432.05;1887412;76;26694;-72
2021/04/05 03:27:13;;;;;;;16.60;9.97;;;;;;;8.57;100.00;101428.06;1887441;73;26240;-72
2021/04/05 03:29:45;;;;;;;16.70;9.63;;;;;;;8.56;100.00;101433.30;1887597;76;26632;-73
2021/04/05 03:32:18;;;;;;;18.03;9.90;;;;;;;8.61;100.00;101416.22;1887357;76;26262;-72
2021/04/05 03:34:51;;;;;;;15.60;9.57;;;;;;;8.61;100.00;101413.45;1887545;76;26270;-73
2021/04/05 03:37:22;;;;;;;16.17;9.43;;;;;;;8.59;100.00;101410.66;1887918;76;26381;-72
2021/04/05 03:39:53;;;;;;;16.53;9.80;;;;;;;8.56;100.00;101405.62;1887462;76;26233;-72
2021/04/05 03:42:26;;;;;;;15.00;8.97;;;;;;;8.57;100.00;101398.45;1887469;76;26197;-72
2021/04/05 03:44:59;;;;;;;13.33;8.60;;;;;;;8.57;100.00;101390.69;1887452;76;26190;-73
2021/04/05 03:47:33;;;;;;;14.07;8.83;;;;;;;8.67;100.00;101391.66;1887463;76;26189;-72
2021/04/05 03:50:10;;;;;;;15.63;8.90;;;;;;;8.64;100.00;101396.88;1887568;76;26267;-72
2021/04/05 03:53:00;;;;;;;13.27;8.33;;;;;;;8.76;100.00;101398.95;1824297;78;33197;-72
2021/04/05 03:55:33;;;;;;;16.43;8.70;;;;;;;8.73;100.00;101388.38;1821340;78;26666;-73
2021/04/05 03:58:04;;;;;;;12.60;7.80;;;;;;;8.73;100.00;101391.72;1821447;79;26242;-72
2021/04/05 04:00:35;;;;;;;13.33;8.03;;;;;;;8.72;100.00;101391.42;1809553;78;934714;-72
2021/04/05 04:03:09;;;;;;;13.73;8.27;;;;;;;8.73;100.00;101400.84;1821364;79;26686;-72
2021/04/05 04:05:42;;;;;;;12.50;8.10;;;;;;;8.65;100.00;101397.15;1821415;79;26288;-72
2021/04/05 04:08:19;;;;;;;12.33;8.60;;;;;;;8.72;100.00;101392.27;1821552;79;26354;-72
2021/04/05 04:10:50;;;;;;;14.90;7.47;;;;;;;8.61;100.00;101394.06;1821186;78;26211;-72
2021/04/05 04:13:21;;;;;;;12.43;8.30;;;;;;;8.63;100.00;101396.05;1821388;79;26235;-72
2021/04/05 04:15:52;;;;;;;14.40;7.60;;;;;;;8.64;100.00;101396.30;1821478;79;26254;-71
2021/04/05 04:18:24;;;;;;;11.90;6.53;;;;;;;8.71;100.00;101385.05;1821466;79;26297;-71
2021/04/05 04:20:55;;;;;;;10.87;7.40;;;;;;;8.71;100.00;101378.66;1821507;79;26694;-71
2021/04/05 04:23:25;;;;;;;10.53;6.60;;;;;;;8.79;100.00;101387.89;1831665;76;26196;-72
2021/04/05 04:25:55;;;;;;;12.20;6.53;;;;;;;8.86;100.00;101387.97;1890690;76;26233;-72
2021/04/05 04:28:25;;;;;;;10.30;6.73;;;;;;;8.91;100.00;101389.41;1889634;73;26265;-72
2021/04/05 04:30:59;;;;;;;11.80;6.90;;;;;;;8.92;100.00;101381.39;1887657;76;26695;-72
2021/04/05 04:33:31;;;;;;;9.80;6.20;;;;;;;9.00;100.00;101382.84;1887494;76;26186;-72
2021/04/05 04:36:01;;;;;;;10.40;6.13;;;;;;;9.00;100.00;101379.53;1887482;76;26180;-72
2021/04/05 04:38:31;;;;;;;12.07;6.10;;;;;;;9.04;100.00;101376.52;1887446;76;26202;-72
2021/04/05 04:41:01;;;;;;;9.07;5.60;;;;;;;9.03;100.00;101380.93;1887511;76;26732;-71
2021/04/05 04:43:31;;;;;;;9.93;5.33;;;;;;;9.11;100.00;101383.26;1887490;76;26307;-72
2021/04/05 04:46:01;;;;;;;10.73;5.50;;;;;;;9.13;100.00;101381.05;1887416;76;27058;-72
2021/04/05 04:48:31;;;;;;;9.60;4.67;;;;;;;9.14;100.00;101383.56;1887529;76;26292;-72
2021/04/05 04:51:01;;;;;;;8.27;4.70;;;;;;;9.23;100.00;101386.69;1887644;76;26263;-72
2021/04/05 04:53:30;;;;;;;7.57;4.80;;;;;;;9.27;100.00;101389.22;1887455;76;26210;-72
2021/04/05 04:56:01;;;;;;;9.83;4.53;;;;;;;9.27;100.00;101391.99;1887386;76;26651;-72
2021/04/05 04:58:31;;;;;;;9.80;4.20;;;;;;;9.36;100.00;101395.12;1890650;76;26315;-72
2021/04/05 05:01:02;;;;;;;7.37;3.97;;;;;;;9.45;100.00;101381.91;1888236;76;26294;-72
2021/04/05 05:03:35;;;;;;;8.23;3.90;;;;;;;9.52;100.00;101379.73;1887527;76;26228;-71
2021/04/05 05:06:07;;;;;;;5.30;3.53;;;;;;;9.50;100.00;101379.69;1887437;76;26702;-72
2021/04/05 05:08:38;;;;;;;7.83;4.40;;;;;;;9.62;100.00;101393.39;1888851;76;26197;-72
2021/04/05 05:11:08;;;;;;;6.97;2.73;;;;;;;9.62;100.00;101416.97;1887470;76;26625;-72
2021/04/05 05:13:38;;;;;;;11.23;2.20;;;;;;;9.55;100.00;101440.75;1887438;76;26648;-72
2021/04/05 05:16:10;;;;;;;5.43;2.20;;;;;;;9.51;100.00;101446.54;1887557;76;26193;-72
2021/04/05 05:18:41;;;;;;;5.50;1.80;;;;;;;9.33;100.00;101448.30;1887412;76;26648;-72
2021/04/05 05:21:14;;;;;;;7.47;2.63;;;;;;;9.21;100.00;101459.56;1887529;76;26263;-73
2021/04/05 05:23:46;;;;;;;7.97;2.73;;;;;;;9.14;100.00;101475.56;1887696;76;26277;-72
2021/04/05 05:26:18;;;;;;;6.47;2.60;;;;;;;9.06;100.00;101479.65;1887480;76;26644;-72
2021/04/05 05:28:49;;;;;;;9.37;2.90;;;;;;;9.04;100.00;101479.05;1887407;73;26244;-73
2021/04/05 05:31:20;;;;;;;11.33;3.07;;;;;;;8.98;100.00;101482.88;1887434;76;26625;-72
2021/04/05 05:33:50;;;;;;;11.13;3.27;;;;;;;8.88;100.00;101488.84;1887550;76;26185;-72
2021/04/05 05:36:20;;;;;;;12.53;3.47;;;;;;;8.84;100.00;101495.45;1887525;76;26264;-72
2021/04/05 05:38:51;;;;;;;8.10;4.30;;;;;;;8.80;100.00;101500.38;1887404;76;26299;-72
2021/04/05 05:41:25;;;;;;;12.07;4.27;;;;;;;8.80;100.00;101505.37;1887688;76;26205;-71
2021/04/05 05:43:58;;;;;;;11.77;4.30;;;;;;;8.60;100.00;101500.95;1887545;76;26197;-72
2021/04/05 05:46:36;;;;;;;9.63;4.03;;;;;;;8.54;100.00;101493.66;1887470;76;26267;-72
2021/04/05 05:49:13;;;;;;;13.53;4.20;;;;;;;8.56;100.00;101497.00;1887711;76;26217;-72
2021/04/05 05:52:11;;;;;;;9.03;3.83;;;;;;;8.52;100.00;101495.83;1887596;76;26220;-72
2021/04/05 05:54:53;;;;;;;14.43;4.30;;;;;;;8.48;100.00;101510.73;1837726;77;26299;-72
2021/04/05 05:57:29;;;;;;;8.77;3.67;;;;;;;8.47;100.00;101506.28;1813221;79;26316;-73
2021/04/05 06:00:05;;;;;;;10.10;3.57;;;;;;;8.47;100.00;101511.02;1845969;78;26291;-72
2021/04/05 06:02:56;;;;;;;7.70;3.67;;;;;;;8.46;100.00;101510.17;1813978;79;26272;-72
2021/04/05 06:05:31;;;;;;;8.67;3.80;;;;;;;8.44;100.00;101515.66;1845850;77;26684;-71
2021/04/05 06:08:14;;;;;;;11.70;3.87;;;;;;;8.38;100.00;101514.77;1813957;78;26276;-71
2021/04/05 06:10:51;;;;;;;9.30;3.27;;;;;;;8.32;100.00;101530.16;1845946;77;26707;-71
2021/04/05 06:13:26;;;;;;;11.57;3.43;;;;;;;8.37;100.00;101524.70;1814038;79;26208;-72
2021/04/05 06:16:04;;;;;;;9.13;3.63;;;;;;;8.36;100.00;101521.63;1845752;78;26701;-72
2021/04/05 06:18:40;;;;;;;11.63;4.37;;;;;;;8.32;100.00;101515.77;1814151;79;26273;-72
2021/04/05 06:21:14;;;;;;;15.33;3.60;;;;;;;8.31;100.00;101518.78;1845905;78;26236;-72
2021/04/05 06:23:50;;;;;;;8.00;4.00;;;;;;;8.27;100.00;101517.04;1814249;79;26235;-72
2021/04/05 06:26:26;;;;;;;14.33;3.60;;;;;;;8.27;100.00;101525.88;1845829;78;26199;-72
2021/04/05 06:28:59;;;;;;;9.10;3.57;;;;;;;8.28;100.00;101518.72;1813826;76;26247;-72
2021/04/05 06:31:42;;;;;;;9.30;3.50;;;;;;;8.48;100.00;101505.20;1845872;77;26229;-72
2021/04/05 06:34:23;;;;;;;5.80;2.87;;;;;;;8.35;100.00;101505.56;1813928;78;26285;-71
2021/04/05 06:37:00;;;;;;;7.23;3.10;;;;;;;8.32;100.00;101512.16;1874003;76;26325;-72
2021/04/05 06:39:31;;;;;;;11.50;3.10;;;;;;;8.32;100.00;101520.47;1887413;76;26306;-72
2021/04/05 06:42:33;;;;;;;8.27;2.83;;;;;;;8.34;100.00;101530.20;1887525;76;26281;-72
2021/04/05 06:45:35;;;;;;;9.23;3.00;;;;;;;8.32;100.00;101546.76;1887871;76;26307;-71
2021/04/05 06:48:34;;;;;;;5.77;2.00;;;;;;;8.36;100.00;101544.62;1883740;76;26184;-71
2021/04/05 06:51:07;;;;;;;9.83;2.37;;;;;;;8.34;100.00;101549.58;1815709;78;26241;-71
2021/04/05 06:56:54;;;;;;;7.10;1.70;;;;;;;8.38;100.00;101563.21;1727399;83;26263;-71
2021/04/05 06:59:32;;;;;;;5.13;1.80;;;;;;;8.40;100.00;101565.70;1756297;82;26256;-71
2021/04/05 07:02:26;;;;;;;7.60;1.80;;;;;;;8.36;100.00;101570.07;1727150;82;26262;-71
2021/04/05 07:05:07;;;;;;;6.07;1.80;;;;;;;8.35;100.00;101569.23;1755460;81;26224;-72
2021/04/05 07:07:41;;;;;;;5.83;1.50;;;;;;;8.39;100.00;101583.40;1706917;83;26774;-71
2021/04/05 07:10:15;;;;;;;6.87;1.40;;;;;;;8.37;100.00;101580.91;1730115;83;26233;-72
2021/04/05 07:12:53;;;;;;;5.80;1.43;;;;;;;8.32;100.00;101582.20;1774664;81;26651;-72
2021/04/05 07:15:37;;;;;;;5.47;1.63;;;;;;;8.32;100.00;101579.44;1774806;81;26238;-72
2021/04/05 07:18:18;;;;;;;4.23;1.20;;;;;;;8.26;100.00;101574.05;1785591;80;26226;-71
2021/04/05 07:21:13;;;;;;;2.13;1.10;;;;;;;8.30;100.00;101576.64;1793549;80;26321;-71
2021/04/05 07:23:58;;;;;;;4.83;1.30;;;;;;;8.29;100.00;101592.41;1780321;80;26720;-72
2021/04/05 07:26:34;;;;;;;4.47;1.53;;;;;;;8.34;100.00;101586.95;1793853;80;26305;-71
2021/04/05 07:29:06;;;;;;;6.07;1.47;;;;;;;8.37;100.00;101595.29;1793631;80;26315;-70
2021/04/05 07:31:44;;;;;;;5.57;1.73;;;;;;;8.40;100.00;101598.92;1793436;80;26351;-71
2021/04/05 07:34:23;;;;;;;4.83;1.47;;;;;;;8.38;100.00;101613.04;1793439;80;26271;-71
2021/04/05 07:37:00;;;;;;;7.30;1.90;;;;;;;8.37;100.00;101612.73;1794023;80;26217;-72
2021/04/05 07:39:33;;;;;;;4.97;1.40;;;;;;;8.46;100.00;101610.39;1799794;79;26288;-72
2021/04/05 07:42:07;;;;;;;4.50;1.73;;;;;;;8.50;100.00;101621.25;1794534;80;26239;-72
2021/04/05 07:44:55;;;;;;;4.60;1.20;;;;;;;8.58;100.00;101610.58;1755878;81;26311;-71
2021/04/05 07:47:31;;;;;;;7.80;1.83;;;;;;;8.57;100.00;101608.05;1704213;83;26303;-72
2021/04/05 07:50:06;;;;;;;5.67;1.23;;;;;;;8.71;100.00;101612.16;1717391;83;26875;-72
2021/04/05 07:52:39;;;;;;;5.07;1.43;;;;;;;8.78;100.00;101611.96;1720357;83;26240;-72
2021/04/05 07:55:11;;;;;;;5.60;1.77;;;;;;;8.78;100.00;101616.12;1790114;77;26269;-72
2021/04/05 07:57:50;;;;;;;7.13;1.70;;;;;;;8.92;100.00;101627.98;1756265;81;26728;-72
2021/04/05 08:00:27;;;;;;;6.07;1.40;;;;;;;8.85;100.00;101620.95;1704643;83;26356;-72
2021/04/05 08:03:09;;;;;;;6.40;1.60;;;;;;;8.92;100.00;101632.68;1752926;82;26266;-72
2021/04/05 08:05:43;;;;;;;4.93;1.70;;;;;;;9.28;100.00;101638.17;1755716;81;26294;-72
2021/04/05 08:08:36;;;;;;;7.27;1.87;;;;;;;9.19;100.00;101636.94;1726184;83;26243;-73
2021/04/05 08:11:12;;;;;;;4.37;1.50;;;;;;;9.07;100.00;101633.72;1756522;81;26600;-72
2021/04/05 08:13:48;;;;;;;5.90;1.47;;;;;;;8.91;100.00;101641.53;1756071;81;26295;-72
2021/04/05 08:16:21;;;;;;;8.07;2.30;;;;;;;8.82;100.00;101639.45;1755974;81;26257;-72
2021/04/05 08:18:57;;;;;;;5.77;1.50;;;;;;;8.80;100.00;101641.11;1783317;80;26307;-72
2021/04/05 08:21:32;;;;;;;6.37;1.90;;;;;;;8.80;100.00;101651.34;1794818;80;26250;-72
2021/04/05 08:24:06;;;;;;;9.63;1.87;;;;;;;8.73;100.00;101655.66;1756224;81;26260;-71
2021/04/05 08:26:40;;;;;;;5.60;1.30;;;;;;;8.61;100.00;101657.69;1727109;83;26669;-72
2021/04/05 08:29:13;;;;;;;5.93;1.70;;;;;;;8.51;100.00;101661.70;1750607;82;26405;-72
2021/04/05 08:32:09;;;;;;;7.60;2.00;;;;;;;8.44;100.00;101667.38;1750824;82;26707;-72
2021/04/05 08:34:50;;;;;;;4.80;1.87;;;;;;;8.37;100.00;101675.02;1750090;82;26250;-72
2021/04/05 08:37:24;;;;;;;6.97;1.90;;;;;;;8.08;100.00;101688.05;1750716;81;26359;-72
2021/04/05 08:40:03;;;;;;;6.17;2.40;;;;;;;8.16;100.00;101684.87;1750286;82;26373;-72
2021/04/05 08:42:36;;;;;;;6.93;2.40;;;;;;;7.95;100.00;101678.66;1750596;82;26743;-72
2021/04/05 08:45:14;;;;;;;4.27;1.57;;;;;;;8.02;100.00;101687.64;1744032;82;26325;-72
2021/04/05 08:47:47;;;;;;;5.20;1.90;;;;;;;7.99;100.00;101689.53;1757877;82;26226;-72
2021/04/05 08:50:18;;;;;;;6.30;2.23;;;;;;;7.99;100.00;101689.53;1794142;80;26226;-72
2021/04/05 08:52:51;;;;;;;6.37;1.90;;;;;;;7.95;100.00;101683.34;1756152;81;26327;-72
2021/04/05 08:55:24;;;;;;;5.77;1.63;;;;;;;7.90;100.00;101684.63;1705727;82;26359;-73
2021/04/05 08:57:57;;;;;;;4.10;1.70;;;;;;;7.86;100.00;101698.13;1753455;80;26248;-73
2021/04/05 09:00:30;;;;;;;6.07;1.70;;;;;;;7.73;100.00;101692.88;1756095;81;26236;-72
2021/04/05 09:03:03;;;;;;;4.93;1.50;;;;;;;7.66;100.00;101710.12;1727148;82;26777;-72
2021/04/05 09:05:33;;;;;;;6.03;2.07;;;;;;;7.75;100.00;101716.42;1756387;82;26288;-72
2021/04/05 09:08:08;;;;;;;5.27;1.50;;;;;;;7.61;100.00;101712.82;1727372;83;26310;-72
2021/04/05 09:10:46;;;;;;;6.30;1.87;;;;;;;7.75;100.00;101719.73;1756424;82;26679;-72
2021/04/05 09:13:19;;;;;;;5.53;1.60;;;;;;;7.65;100.00;101738.36;1745317;82;26684;-72
2021/04/05 09:16:33;;;;;;;5.50;1.80;;;;;;;7.51;100.00;101738.31;1745044;82;26755;-72
2021/04/05 09:19:47;;;;;;;6.43;2.47;;;;;;;7.67;100.00;101749.15;1786592;80;26235;-73
2021/04/05 09:22:47;;;;;;;5.77;1.80;;;;;;;7.45;100.00;101755.86;1799685;80;26229;-73
2021/04/05 09:25:28;;;;;;;6.80;3.23;;;;;;;7.58;100.00;101766.66;1797086;80;26694;-74
2021/04/05 09:28:05;;;;;;;8.87;2.30;;;;;;;7.45;100.00;101779.36;1793278;80;26238;-73
2021/04/05 09:30:46;;;;;;;6.17;1.67;;;;;;;7.38;100.00;101790.25;1793928;80;26259;-73
2021/04/05 09:33:37;;;;;;;5.97;2.33;;;;;;;7.20;100.00;101795.34;1793782;80;26333;-74
2021/04/05 09:36:16;;;;;;;4.40;2.60;;;;;;;7.06;100.00;101804.97;1793294;80;26252;-74
2021/04/05 09:38:55;;;;;;;4.93;2.40;;;;;;;6.98;100.00;101817.19;1793812;80;26226;-74
2021/04/05 09:41:33;;;;;;;4.90;2.27;;;;;;;6.79;100.00;101813.69;1793883;80;26316;-74
2021/04/05 09:44:30;;;;;;;6.07;2.40;;;;;;;6.84;100.00;101814.36;1793751;80;26812;-74
2021/04/05 09:47:05;;;;;;;7.10;1.80;;;;;;;6.69;100.00;101805.13;1793697;80;26634;-74
2021/04/05 09:49:41;;;;;;;5.37;1.80;;;;;;;6.73;100.00;101813.78;1794065;80;26238;-74
2021/04/05 09:52:56;;;;;;;4.47;2.03;;;;;;;6.70;100.00;101811.50;1793648;80;26261;-74
2021/04/05 09:55:30;;;;;;;4.83;1.67;;;;;;;6.93;100.00;101820.38;1790704;79;26257;-75
2021/04/05 09:58:05;;;;;;;4.20;1.50;;;;;;;7.04;100.00;101827.30;1799837;78;26280;-74
2021/04/05 10:00:36;;;;;;;5.90;1.83;;;;;;;7.21;100.00;101831.58;1799681;80;26233;-75
2021/04/05 10:03:09;;;;;;;5.30;1.60;;;;;;;7.22;100.00;101830.51;1756314;81;26346;-74
2021/04/05 10:05:44;;;;;;;5.40;2.00;;;;;;;7.39;100.00;101837.55;1705002;83;26249;-74
2021/04/05 10:08:18;;;;;;;4.63;1.80;;;;;;;7.52;100.00;101840.91;1718733;83;26318;-74
2021/04/05 10:10:48;;;;;;;3.57;1.93;;;;;;;7.26;100.00;101850.52;1733531;82;26237;-74
2021/04/05 10:13:20;;;;;;;2.80;1.60;;;;;;;7.52;100.00;101864.95;1756167;82;26831;-74
2021/04/05 10:15:54;;;;;;;3.37;1.60;;;;;;;7.44;100.00;101858.40;1727287;83;26278;-73
2021/04/05 10:18:25;;;;;;;5.10;2.17;;;;;;;7.52;100.00;101866.33;1756163;82;26315;-72
2021/04/05 10:20:57;;;;;;;4.70;1.93;;;;;;;7.52;100.00;101863.56;1756250;82;26750;-73
2021/04/05 10:23:29;;;;;;;4.90;2.03;;;;;;;7.79;100.00;101862.81;1727279;83;26753;-73
2021/04/05 10:26:01;;;;;;;4.17;2.03;;;;;;;7.78;100.00;101872.22;1756376;82;26224;-73
2021/04/05 10:28:33;;;;;;;4.27;2.13;;;;;;;7.94;100.00;101882.23;1727284;83;26749;-72
2021/04/05 10:31:06;;;;;;;3.23;2.30;;;;;;;7.38;100.00;101889.75;1756183;82;26252;-72
2021/04/05 10:33:39;;;;;;;4.53;2.43;;;;;;;6.76;100.00;101890.64;1756218;82;26708;-72
2021/04/05 10:36:13;;;;;;;6.57;2.50;;;;;;;6.66;100.00;101892.58;1727297;83;26674;-72
2021/04/05 10:38:43;;;;;;;3.10;1.90;;;;;;;6.85;100.00;101892.81;1727328;83;26320;-73
2021/04/05 10:41:15;;;;;;;6.43;2.07;;;;;;;6.69;100.00;101909.20;1756187;82;26673;-72
2021/04/05 10:43:51;;;;;;;6.63;2.07;;;;;;;6.78;100.00;101909.19;1756315;81;26358;-72
2021/04/05 10:46:23;;;;;;;5.27;1.70;;;;;;;6.61;100.00;101915.89;1705044;83;26667;-72
2021/04/05 10:48:55;;;;;;;4.57;1.83;;;;;;;6.34;100.00;101927.81;1730874;83;26653;-72
2021/04/05 10:51:27;;;;;;;3.30;1.97;;;;;;;6.72;100.00;101925.30;1774437;81;26232;-72
2021/04/05 10:54:03;;;;;;;4.20;2.27;;;;;;;6.73;100.00;101931.13;1774607;81;26227;-73
2021/04/05 10:56:38;;;;;;;3.93;2.37;;;;;;;6.77;100.00;101936.48;1774568;78;26292;-72
2021/04/05 10:59:11;;;;;;;5.57;1.70;;;;;;;6.52;100.00;101947.66;1735269;81;26257;-72
2021/04/05 11:01:46;;;;;;;4.03;2.03;;;;;;;6.62;100.00;101945.73;1785691;80;26328;-72
2021/04/05 11:04:18;;;;;;;1.93;1.30;;;;;;;6.62;100.00;101947.11;1793998;80;26273;-72
2021/04/05 11:06:51;;;;;;;3.77;1.63;;;;;;;6.38;100.00;101945.59;1793827;80;26421;-72
2021/04/05 11:09:23;;;;;;;2.77;1.40;;;;;;;6.66;100.00;101951.94;1756187;81;26267;-72
2021/04/05 11:11:55;;;;;;;2.90;1.23;;;;;;;6.78;100.00;101950.60;1727238;83;26654;-72
2021/04/05 11:14:26;;;;;;;2.40;1.00;;;;;;;6.71;100.00;101967.28;1756206;82;26303;-72
2021/04/05 11:16:59;;;;;;;2.97;1.30;;;;;;;6.72;100.00;101963.95;1727305;83;26243;-72
2021/04/05 11:19:34;;;;;;;2.37;1.63;;;;;;;6.90;100.00;101958.93;1756184;82;26316;-72
2021/04/05 11:22:07;;;;;;;3.33;1.10;;;;;;;7.26;100.00;101949.16;1756215;82;26738;-72
2021/04/05 11:24:38;;;;;;;3.50;1.50;;;;;;;7.06;100.00;101950.83;1727249;83;26698;-73
2021/04/05 11:27:10;;;;;;;3.73;1.67;;;;;;;7.24;100.00;101947.16;1727233;83;26239;-72
2021/04/05 11:29:43;;;;;;;3.57;1.20;;;;;;;6.91;100.00;101949.58;1756156;81;26664;-72
2021/04/05 11:32:17;;;;;;;2.63;1.60;;;;;;;6.93;100.00;101946.05;1799781;80;26242;-72
2021/04/05 11:34:50;;;;;;;1.93;1.20;;;;;;;7.01;100.00;101948.48;1753852;81;26238;-72
2021/04/05 11:37:20;;;;;;;3.17;1.50;;;;;;;7.62;100.00;101943.97;1706910;83;26249;-72
2021/04/05 11:39:55;;;;;;;2.87;1.37;;;;;;;7.91;100.00;101939.44;1720262;83;26246;-72
2021/04/05 11:42:32;;;;;;;3.07;1.77;;;;;;;7.54;100.00;101932.73;1784969;80;26246;-72
2021/04/05 11:45:03;;;;;;;4.20;2.20;;;;;;;7.59;100.00;101935.63;1749044;81;26273;-72
2021/04/05 11:47:38;;;;;;;4.03;2.07;;;;;;;7.94;100.00;101927.34;1720381;82;26299;-72
2021/04/05 11:50:15;;;;;;;2.73;1.50;;;;;;;7.70;100.00;101923.72;1752628;81;26655;-72
2021/04/05 11:52:48;;;;;;;2.53;1.53;;;;;;;7.97;100.00;101926.00;1756081;82;26235;-72
2021/04/05 11:55:26;;;;;;;1.93;1.47;;;;;;;7.74;100.00;101944.84;1727245;83;26239;-72
2021/04/05 11:57:59;;;;;;;4.17;1.80;;;;;;;7.86;100.00;101950.38;1756255;80;26276;-72